createdAt,value
2019-03-09T00:01:04.991Z,5.67
2019-03-09T00:03:34.260Z,4.77
2019-03-09T00:06:03.541Z,5.60
2019-03-09T00:08:33.104Z,4.70
2019-03-09T00:11:02.337Z,4.10
2019-03-09T00:13:31.676Z,5.00
2019-03-09T00:16:01.011Z,4.67
2019-03-09T00:18:30.205Z,4.80
2019-03-09T00:20:59.522Z,4.37
2019-03-09T00:24:03.036Z,4.80
2019-03-09T00:26:57.258Z,4.83
2019-03-09T00:29:45.516Z,4.37
2019-03-09T00:32:17.238Z,4.73
2019-03-09T00:34:46.534Z,4.57
2019-03-09T00:37:15.812Z,4.60
2019-03-09T00:39:45.042Z,4.70
2019-03-09T00:42:14.369Z,4.80
2019-03-09T00:44:43.724Z,4.27
2019-03-09T00:47:13.024Z,4.00
2019-03-09T00:49:42.352Z,3.87
2019-03-09T00:52:11.574Z,3.63
2019-03-09T00:54:40.908Z,4.07
2019-03-09T00:57:10.070Z,3.93
2019-03-09T00:59:39.387Z,3.13
2019-03-09T01:02:08.676Z,3.93
2019-03-09T01:04:37.879Z,3.83
2019-03-09T01:07:07.086Z,3.50
2019-03-09T01:09:36.262Z,3.97
2019-03-09T01:12:05.501Z,2.80
2019-03-09T01:14:34.892Z,3.90
2019-03-09T01:17:04.039Z,3.67
2019-03-09T01:19:33.223Z,3.43
2019-03-09T01:22:02.442Z,3.60
2019-03-09T01:24:31.723Z,3.20
2019-03-09T01:27:01.029Z,2.90
2019-03-09T01:29:30.278Z,3.77
2019-03-09T01:31:59.513Z,3.77
2019-03-09T01:34:28.795Z,3.30
2019-03-09T01:36:58.049Z,3.33
2019-03-09T01:39:27.231Z,2.80
2019-03-09T01:41:56.375Z,2.80
2019-03-09T01:44:25.699Z,3.10
2019-03-09T01:46:54.919Z,2.80
2019-03-09T01:49:24.151Z,2.97
2019-03-09T01:51:53.447Z,3.40
2019-03-09T01:54:22.751Z,2.50
2019-03-09T01:56:51.972Z,3.23
2019-03-09T01:59:21.244Z,3.00
2019-03-09T02:01:50.467Z,2.73
2019-03-09T02:04:19.619Z,3.20
2019-03-09T02:06:48.899Z,2.40
2019-03-09T02:09:18.419Z,3.30
2019-03-09T02:11:47.683Z,2.87
2019-03-09T02:14:16.908Z,3.40
2019-03-09T02:16:46.092Z,3.00
2019-03-09T02:19:15.403Z,2.60
2019-03-09T02:21:44.615Z,3.43
2019-03-09T02:24:13.771Z,2.97
2019-03-09T02:26:43.019Z,3.20
2019-03-09T02:29:12.244Z,3.27
2019-03-09T02:31:41.503Z,3.10
2019-03-09T02:34:10.825Z,3.20
2019-03-09T02:36:40.083Z,3.47
2019-03-09T02:39:27.618Z,3.00
2019-03-09T02:41:56.876Z,2.77
2019-03-09T02:44:26.292Z,3.13
2019-03-09T02:46:55.552Z,3.10
2019-03-09T02:49:24.781Z,2.63
2019-03-09T02:51:53.977Z,3.30
2019-03-09T02:54:23.223Z,2.67
2019-03-09T02:56:52.466Z,3.37
2019-03-09T02:59:21.766Z,2.93
2019-03-09T03:02:02.114Z,3.20
2019-03-09T03:04:31.407Z,3.70
2019-03-09T03:07:00.655Z,3.50
2019-03-09T03:09:29.933Z,3.23
2019-03-09T03:11:59.197Z,4.23
2019-03-09T03:14:28.411Z,3.00
2019-03-09T03:16:57.665Z,3.80
2019-03-09T03:19:26.900Z,3.00
2019-03-09T03:21:58.023Z,3.50
2019-03-09T03:24:27.252Z,3.63
2019-03-09T03:26:56.590Z,3.83
2019-03-09T03:29:25.964Z,3.80
2019-03-09T03:31:55.215Z,3.90
2019-03-09T03:34:24.479Z,3.20
2019-03-09T03:36:53.837Z,3.77
2019-03-09T03:39:22.992Z,3.53
2019-03-09T03:41:52.316Z,4.00
2019-03-09T03:44:21.559Z,4.13
2019-03-09T03:46:50.903Z,3.83
2019-03-09T03:49:20.236Z,3.47
2019-03-09T03:51:49.543Z,4.30
2019-03-09T03:54:18.799Z,4.70
2019-03-09T03:56:48.129Z,4.50
2019-03-09T03:59:17.446Z,4.80
2019-03-09T04:01:46.738Z,4.10
2019-03-09T04:04:15.948Z,4.80
2019-03-09T04:06:45.271Z,4.60
2019-03-09T04:09:14.646Z,5.43
2019-03-09T04:11:43.788Z,4.27
2019-03-09T04:14:12.975Z,4.60
2019-03-09T04:16:42.125Z,5.00
2019-03-09T04:19:11.312Z,4.33
2019-03-09T04:21:40.539Z,4.87
2019-03-09T04:24:09.861Z,4.30
2019-03-09T04:26:39.142Z,4.00
2019-03-09T04:29:08.341Z,4.07
2019-03-09T04:31:37.572Z,3.80
2019-03-09T04:34:06.851Z,3.87
2019-03-09T04:36:36.080Z,3.50
2019-03-09T04:39:06.148Z,4.20
2019-03-09T04:41:35.373Z,4.10
2019-03-09T04:44:04.631Z,4.17
2019-03-09T04:46:33.790Z,4.30
2019-03-09T04:49:03.118Z,3.63
2019-03-09T04:51:32.349Z,3.83
2019-03-09T04:54:01.601Z,3.80
2019-03-09T04:56:30.818Z,3.60
2019-03-09T04:58:59.999Z,3.50
2019-03-09T05:01:29.221Z,3.73
2019-03-09T05:04:42.833Z,4.03
2019-03-09T05:07:14.872Z,3.83
2019-03-09T05:09:54.955Z,4.20
2019-03-09T05:12:24.102Z,4.27
2019-03-09T05:14:53.379Z,3.37
2019-03-09T05:17:22.833Z,3.50
2019-03-09T05:19:52.092Z,3.10
2019-03-09T05:22:21.315Z,3.77
2019-03-09T05:24:50.499Z,3.50
2019-03-09T05:27:19.724Z,2.67
2019-03-09T05:29:48.983Z,3.20
2019-03-09T05:32:18.211Z,2.90
2019-03-09T05:34:47.488Z,2.90
2019-03-09T05:37:16.653Z,3.30
2019-03-09T05:39:45.971Z,2.60
2019-03-09T05:42:15.119Z,2.80
2019-03-09T05:44:44.297Z,2.70
2019-03-09T05:47:13.600Z,2.77
2019-03-09T05:49:42.859Z,2.50
2019-03-09T05:52:37.181Z,2.67
2019-03-09T05:55:13.185Z,2.40
2019-03-09T05:57:42.336Z,2.30
2019-03-09T06:00:13.433Z,2.20
2019-03-09T06:02:42.586Z,2.07
2019-03-09T06:05:59.858Z,2.40
2019-03-09T06:08:29.084Z,1.47
2019-03-09T06:10:58.331Z,2.10
2019-03-09T06:13:27.483Z,1.80
2019-03-09T06:15:56.667Z,2.20
2019-03-09T06:18:25.937Z,1.90
2019-03-09T06:20:55.268Z,2.20
2019-03-09T06:23:24.417Z,2.10
2019-03-09T06:25:53.601Z,1.90
2019-03-09T06:28:22.874Z,2.10
2019-03-09T06:30:52.052Z,1.70
2019-03-09T06:33:26.032Z,2.30
2019-03-09T06:36:16.541Z,1.63
2019-03-09T06:38:57.447Z,1.80
2019-03-09T06:42:06.714Z,1.57
2019-03-09T06:44:35.944Z,1.70
2019-03-09T06:47:05.215Z,1.70
2019-03-09T06:49:34.392Z,1.63
2019-03-09T06:52:03.655Z,1.50
2019-03-09T06:54:32.888Z,1.50
2019-03-09T06:57:02.063Z,1.70
2019-03-09T06:59:31.320Z,1.23
2019-03-09T07:02:00.643Z,1.10
2019-03-09T07:04:29.866Z,1.30
2019-03-09T07:06:59.048Z,1.30
2019-03-09T07:09:28.281Z,0.90
2019-03-09T07:11:57.537Z,0.80
2019-03-09T07:15:19.937Z,0.80
2019-03-09T07:17:54.139Z,0.90
2019-03-09T07:20:23.382Z,0.80
2019-03-09T07:22:52.575Z,0.80
2019-03-09T07:25:21.800Z,0.70
2019-03-09T07:28:16.446Z,0.87
2019-03-09T07:30:45.738Z,0.77
2019-03-09T07:33:14.943Z,0.90
2019-03-09T07:35:44.290Z,1.00
2019-03-09T07:38:13.501Z,1.10
2019-03-09T07:40:42.819Z,0.80
2019-03-09T07:43:11.996Z,0.90
2019-03-09T07:45:41.295Z,0.60
2019-03-09T07:48:10.499Z,0.80
2019-03-09T07:50:39.728Z,1.00
2019-03-09T07:53:08.996Z,1.10
2019-03-09T07:55:38.156Z,0.93
2019-03-09T07:58:07.733Z,1.33
2019-03-09T08:00:36.992Z,1.30
2019-03-09T08:03:06.539Z,1.37
2019-03-09T08:05:35.793Z,1.40
2019-03-09T08:08:05.010Z,1.30
2019-03-09T08:10:34.191Z,1.50
2019-03-09T08:13:03.419Z,1.97
2019-03-09T08:15:32.755Z,1.97
2019-03-09T08:18:01.996Z,2.10
2019-03-09T08:20:31.307Z,2.30
2019-03-09T08:23:00.460Z,2.77
2019-03-09T08:25:29.654Z,2.40
2019-03-09T08:27:58.881Z,2.60
2019-03-09T08:30:28.152Z,2.87
2019-03-09T08:32:57.388Z,3.90
2019-03-09T08:35:26.756Z,3.80
2019-03-09T08:37:55.939Z,4.77
2019-03-09T08:40:25.216Z,18.00
2019-03-09T08:42:54.478Z,5.00
2019-03-09T08:45:23.796Z,4.73
2019-03-09T08:47:53.206Z,4.30
2019-03-09T08:50:22.733Z,5.60
2019-03-09T08:52:52.072Z,3.90
2019-03-09T08:55:21.330Z,4.03
2019-03-09T08:57:50.736Z,7.37
2019-03-09T09:00:30.028Z,6.40
2019-03-09T09:02:59.081Z,3.90
2019-03-09T09:05:28.292Z,4.17
2019-03-09T09:07:57.626Z,4.30
2019-03-09T09:10:26.937Z,3.47
2019-03-09T09:12:56.240Z,3.63
2019-03-09T09:15:25.469Z,3.57
2019-03-09T09:17:54.719Z,3.30
2019-03-09T09:20:24.001Z,3.50
2019-03-09T09:22:53.320Z,3.70
2019-03-09T09:25:22.482Z,3.50
2019-03-09T09:27:52.305Z,4.27
2019-03-09T09:30:23.844Z,3.40
2019-03-09T09:32:53.092Z,3.60
2019-03-09T09:35:22.652Z,3.37
2019-03-09T09:37:52.164Z,3.80
2019-03-09T09:40:22.557Z,3.63
2019-03-09T09:42:51.899Z,3.47
2019-03-09T09:45:21.436Z,3.40
2019-03-09T09:47:50.681Z,3.53
2019-03-09T09:50:19.915Z,3.53
2019-03-09T09:52:49.180Z,4.20
2019-03-09T09:55:18.499Z,3.80
2019-03-09T09:57:47.691Z,4.30
2019-03-09T10:00:19.199Z,4.17
2019-03-09T10:02:48.400Z,5.40
2019-03-09T10:05:17.636Z,6.73
2019-03-09T10:07:46.820Z,3.63
2019-03-09T10:10:17.140Z,3.20
2019-03-09T10:12:46.328Z,3.03
2019-03-09T10:15:17.586Z,2.63
2019-03-09T10:17:47.126Z,2.50
2019-03-09T10:20:16.353Z,2.30
2019-03-09T10:22:45.517Z,2.70
2019-03-09T10:25:15.074Z,2.40
2019-03-09T10:27:44.336Z,2.30
2019-03-09T10:30:16.370Z,2.40
2019-03-09T10:32:45.708Z,2.17
2019-03-09T10:35:14.948Z,2.20
2019-03-09T10:37:44.094Z,2.17
2019-03-09T10:40:13.700Z,2.30
2019-03-09T10:42:42.961Z,2.30
2019-03-09T10:45:12.282Z,2.00
2019-03-09T10:47:42.220Z,1.90
2019-03-09T10:50:12.732Z,1.83
2019-03-09T10:52:42.066Z,2.07
2019-03-09T10:55:13.366Z,1.70
2019-03-09T10:57:42.704Z,1.83
2019-03-09T11:00:15.342Z,1.73
2019-03-09T11:02:44.578Z,1.70
2019-03-09T11:05:13.899Z,2.20
2019-03-09T11:07:43.137Z,2.27
2019-03-09T11:10:12.513Z,1.60
2019-03-09T11:12:42.300Z,1.63
2019-03-09T11:15:11.497Z,1.90
2019-03-09T11:17:40.723Z,2.00
2019-03-09T11:20:11.175Z,1.80
2019-03-09T11:22:40.439Z,1.90
2019-03-09T11:25:09.875Z,1.67
2019-03-09T11:27:39.227Z,1.70
2019-03-09T11:30:12.211Z,1.47
2019-03-09T11:32:41.486Z,1.50
2019-03-09T11:35:10.719Z,1.83
2019-03-09T11:37:39.981Z,1.80
2019-03-09T11:40:09.285Z,1.87
2019-03-09T11:42:38.469Z,1.70
2019-03-09T11:45:09.223Z,2.40
2019-03-09T11:47:38.413Z,2.00
2019-03-09T11:50:08.135Z,1.80
2019-03-09T11:52:37.320Z,1.50
2019-03-09T11:55:06.875Z,2.00
2019-03-09T11:57:36.184Z,1.70
2019-03-09T12:00:06.771Z,2.00
2019-03-09T12:02:39.205Z,1.70
2019-03-09T12:05:07.797Z,1.60
2019-03-09T12:07:36.995Z,1.80
2019-03-09T12:10:06.724Z,1.60
2019-03-09T12:12:36.788Z,1.70
2019-03-09T12:15:06.576Z,1.70
2019-03-09T12:17:35.887Z,1.90
2019-03-09T12:20:06.071Z,1.60
2019-03-09T12:22:35.256Z,1.63
2019-03-09T12:25:04.895Z,1.30
2019-03-09T12:27:34.212Z,1.33
2019-03-09T12:30:04.094Z,1.27
2019-03-09T12:32:33.449Z,1.10
2019-03-09T12:35:02.639Z,1.40
2019-03-09T12:37:31.814Z,1.50
2019-03-09T12:40:01.046Z,1.33
2019-03-09T12:42:30.336Z,1.37
2019-03-09T12:44:59.491Z,1.20
2019-03-09T12:47:28.670Z,1.47
2019-03-09T12:49:57.896Z,0.93
2019-03-09T12:52:27.179Z,1.40
2019-03-09T12:54:56.402Z,1.30
2019-03-09T12:57:25.675Z,1.30
2019-03-09T12:59:54.820Z,1.10
2019-03-09T13:02:24.072Z,1.13
2019-03-09T13:04:53.340Z,1.40
2019-03-09T13:07:22.576Z,1.30
2019-03-09T13:09:51.839Z,4.07
2019-03-09T13:12:21.070Z,3.27
2019-03-09T13:14:50.306Z,1.77
2019-03-09T13:17:19.538Z,1.37
2019-03-09T13:19:48.867Z,1.50
2019-03-09T13:22:18.032Z,1.20
2019-03-09T13:24:47.293Z,1.27
2019-03-09T13:27:16.447Z,1.20
2019-03-09T13:29:45.638Z,1.20
2019-03-09T13:32:14.874Z,1.10
2019-03-09T13:34:44.343Z,1.40
2019-03-09T13:37:13.566Z,1.43
2019-03-09T13:39:42.842Z,1.23
2019-03-09T13:42:12.067Z,1.50
2019-03-09T13:44:41.328Z,1.30
2019-03-09T13:47:10.560Z,1.40
2019-03-09T13:49:39.887Z,1.37
2019-03-09T13:52:09.055Z,1.50
2019-03-09T13:54:38.351Z,1.30
2019-03-09T13:57:07.531Z,1.30
2019-03-09T13:59:36.847Z,1.43
2019-03-09T14:02:06.088Z,1.30
2019-03-09T14:04:35.447Z,1.30
2019-03-09T14:07:04.674Z,1.00
2019-03-09T14:09:33.950Z,1.50
2019-03-09T14:12:03.300Z,1.37
2019-03-09T14:14:32.555Z,2.20
2019-03-09T14:17:01.775Z,1.40
2019-03-09T14:19:31.011Z,1.70
2019-03-09T14:22:00.273Z,1.53
2019-03-09T14:24:29.516Z,1.40
2019-03-09T14:26:58.829Z,1.60
2019-03-09T14:29:27.986Z,1.33
2019-03-09T14:31:57.236Z,1.40
2019-03-09T14:34:26.583Z,1.40
2019-03-09T14:36:55.844Z,1.40
2019-03-09T14:39:25.023Z,1.60
2019-03-09T14:41:54.287Z,1.43
2019-03-09T14:44:23.447Z,1.57
2019-03-09T14:46:52.690Z,1.13
2019-03-09T14:49:21.918Z,1.10
2019-03-09T14:51:51.191Z,1.10
2019-03-09T14:54:20.491Z,1.23
2019-03-09T14:56:49.668Z,1.10
2019-03-09T14:59:18.903Z,0.90
2019-03-09T15:01:48.163Z,0.90
2019-03-09T15:04:17.390Z,1.30
2019-03-09T15:06:46.579Z,1.27
2019-03-09T15:09:15.847Z,1.10
2019-03-09T15:11:45.110Z,1.27
2019-03-09T15:14:14.267Z,1.00
2019-03-09T15:16:43.505Z,1.23
2019-03-09T15:19:12.841Z,3.67
2019-03-09T15:21:42.160Z,4.10
2019-03-09T15:24:11.397Z,2.73
2019-03-09T15:26:40.636Z,2.30
2019-03-09T15:29:09.971Z,1.80
2019-03-09T15:31:39.216Z,4.13
2019-03-09T15:34:08.636Z,1.90
2019-03-09T15:36:37.855Z,1.63
2019-03-09T15:39:08.979Z,1.80
2019-03-09T15:41:38.214Z,2.23
2019-03-09T15:44:07.517Z,2.20
2019-03-09T15:46:36.752Z,2.40
2019-03-09T15:49:06.087Z,1.50
2019-03-09T15:51:35.240Z,1.70
2019-03-09T15:54:04.615Z,1.77
2019-03-09T15:56:33.852Z,2.27
2019-03-09T15:59:03.188Z,2.70
2019-03-09T16:01:32.430Z,2.20
2019-03-09T16:04:01.618Z,2.43
2019-03-09T16:06:30.863Z,3.20
2019-03-09T16:09:00.126Z,2.60
2019-03-09T16:11:29.607Z,3.00
2019-03-09T16:13:58.871Z,3.47
2019-03-09T16:16:28.016Z,3.03
2019-03-09T16:18:57.276Z,3.50
2019-03-09T16:21:26.441Z,3.60
2019-03-09T16:23:55.780Z,3.00
2019-03-09T16:26:24.971Z,4.37
2019-03-09T16:28:54.302Z,4.00
2019-03-09T16:31:23.545Z,3.97
2019-03-09T16:33:52.874Z,3.20
2019-03-09T16:36:22.103Z,4.20
2019-03-09T16:38:51.365Z,3.43
2019-03-09T16:41:20.578Z,3.43
2019-03-09T16:43:49.807Z,3.60
2019-03-09T16:46:19.058Z,4.17
2019-03-09T16:48:48.221Z,4.40
2019-03-09T16:51:17.467Z,4.07
2019-03-09T16:53:46.625Z,3.73
2019-03-09T16:56:15.884Z,3.83
2019-03-09T16:58:45.035Z,3.63
2019-03-09T17:01:14.219Z,4.00
2019-03-09T17:03:43.599Z,3.70
2019-03-09T17:06:12.862Z,7.23
2019-03-09T17:08:42.016Z,6.40
2019-03-09T17:11:11.202Z,4.50
2019-03-09T17:13:40.422Z,3.43
2019-03-09T17:16:09.632Z,3.70
2019-03-09T17:18:38.786Z,3.63
2019-03-09T17:21:07.957Z,2.93
2019-03-09T17:23:37.121Z,3.47
2019-03-09T17:26:06.436Z,3.07
2019-03-09T17:28:35.582Z,3.60
2019-03-09T17:31:04.852Z,3.57
2019-03-09T17:33:34.159Z,4.80
2019-03-09T17:36:03.430Z,4.73
2019-03-09T17:38:32.744Z,5.93
2019-03-09T17:41:02.007Z,3.47
2019-03-09T17:43:31.235Z,3.40
2019-03-09T17:46:00.493Z,2.90
2019-03-09T17:48:29.739Z,2.37
2019-03-09T17:50:58.915Z,5.27
2019-03-09T17:53:28.159Z,6.20
2019-03-09T17:55:57.416Z,6.10
2019-03-09T17:58:26.577Z,10.03
2019-03-09T18:00:55.927Z,5.70
2019-03-09T18:03:25.163Z,11.70
2019-03-09T18:05:54.352Z,9.73
2019-03-09T18:08:23.644Z,3.57
2019-03-09T18:10:55.857Z,7.60
2019-03-09T18:13:25.030Z,2.20
2019-03-09T18:15:54.255Z,3.77
2019-03-09T18:18:23.463Z,2.57
2019-03-09T18:20:52.735Z,2.90
2019-03-09T18:23:21.982Z,7.33
2019-03-09T18:25:51.142Z,2.93
2019-03-09T18:28:20.399Z,4.33
2019-03-09T18:30:49.543Z,3.83
2019-03-09T18:33:19.746Z,2.90
2019-03-09T18:35:48.924Z,2.20
2019-03-09T18:38:18.101Z,2.60
2019-03-09T18:40:49.597Z,2.10
2019-03-09T18:43:18.298Z,2.07
2019-03-09T18:45:47.474Z,2.90
2019-03-09T18:48:16.660Z,2.10
2019-03-09T18:50:45.952Z,2.87
2019-03-09T18:53:15.128Z,2.47
2019-03-09T18:55:44.356Z,2.97
2019-03-09T18:58:13.533Z,4.10
2019-03-09T19:00:42.767Z,8.03
2019-03-09T19:03:12.059Z,4.10
2019-03-09T19:05:41.407Z,5.23
2019-03-09T19:08:10.675Z,4.93
2019-03-09T19:10:39.967Z,4.67
2019-03-09T19:13:09.183Z,4.27
2019-03-09T19:15:38.484Z,3.60
2019-03-09T19:18:07.663Z,3.97
2019-03-09T19:20:36.891Z,4.03
2019-03-09T19:23:06.224Z,4.30
2019-03-09T19:25:35.466Z,3.33
2019-03-09T19:28:04.647Z,4.90
2019-03-09T19:30:33.876Z,5.20
2019-03-09T19:33:03.148Z,5.20
2019-03-09T19:35:32.350Z,5.47
2019-03-09T19:38:01.596Z,4.03
2019-03-09T19:40:30.833Z,4.10
2019-03-09T19:43:00.123Z,4.27
2019-03-09T19:45:29.308Z,4.23
2019-03-09T19:47:58.454Z,4.60
2019-03-09T19:50:27.755Z,3.00
2019-03-09T19:52:58.958Z,3.40
2019-03-09T19:55:27.954Z,3.63
2019-03-09T19:57:57.126Z,4.57
2019-03-09T20:00:26.378Z,2.93
2019-03-09T20:02:55.527Z,3.83
2019-03-09T20:05:24.848Z,3.13
2019-03-09T20:07:54.012Z,4.33
2019-03-09T20:10:23.411Z,3.47
2019-03-09T20:12:52.720Z,4.10
2019-03-09T20:15:22.022Z,4.80
2019-03-09T20:17:51.327Z,5.97
2019-03-09T20:20:20.507Z,5.10
2019-03-09T20:22:49.727Z,6.63
2019-03-09T20:25:18.978Z,4.27
2019-03-09T20:27:48.274Z,4.83
2019-03-09T20:30:18.168Z,3.43
2019-03-09T20:32:47.396Z,4.00
2019-03-09T20:35:16.675Z,3.07
2019-03-09T20:37:45.899Z,4.17
2019-03-09T20:40:15.521Z,3.70
2019-03-09T20:42:44.868Z,4.37
2019-03-09T20:45:14.901Z,3.03
2019-03-09T20:47:44.374Z,4.00
2019-03-09T20:50:14.637Z,4.67
2019-03-09T20:52:43.890Z,4.40
2019-03-09T20:55:13.407Z,4.20
2019-03-09T20:57:42.668Z,4.87
2019-03-09T21:00:16.179Z,4.03
2019-03-09T21:02:45.533Z,4.67
2019-03-09T21:05:14.843Z,4.90
2019-03-09T21:07:44.178Z,4.30
2019-03-09T21:10:14.584Z,3.43
2019-03-09T21:12:57.634Z,4.20
2019-03-09T21:15:26.967Z,4.73
2019-03-09T21:17:56.247Z,4.17
2019-03-09T21:20:25.631Z,4.33
2019-03-09T21:22:55.150Z,4.23
2019-03-09T21:25:24.315Z,4.63
2019-03-09T21:27:53.581Z,3.77
2019-03-09T21:30:22.879Z,4.47
2019-03-09T21:32:52.152Z,4.43
2019-03-09T21:35:21.523Z,3.67
2019-03-09T21:37:50.826Z,4.70
2019-03-09T21:40:19.988Z,4.73
2019-03-09T21:42:49.317Z,3.60
2019-03-09T21:45:18.491Z,7.70
2019-03-09T21:47:47.756Z,5.00
2019-03-09T21:50:17.038Z,3.90
2019-03-09T21:52:46.290Z,4.37
2019-03-09T21:55:15.616Z,3.37
2019-03-09T21:57:44.851Z,5.87
2019-03-09T22:00:14.642Z,3.90
2019-03-09T22:02:43.875Z,4.40
2019-03-09T22:05:13.262Z,3.93
2019-03-09T22:07:42.498Z,6.17
2019-03-09T22:10:11.931Z,4.30
2019-03-09T22:12:41.108Z,5.00
2019-03-09T22:15:10.631Z,6.70
2019-03-09T22:17:39.862Z,4.00
2019-03-09T22:20:09.091Z,3.97
2019-03-09T22:22:38.346Z,4.10
2019-03-09T22:25:08.751Z,5.43
2019-03-09T22:27:37.926Z,6.10
2019-03-09T22:30:08.876Z,6.37
2019-03-09T22:32:38.152Z,4.17
2019-03-09T22:35:08.821Z,8.20
2019-03-09T22:37:38.123Z,6.90
2019-03-09T22:40:08.218Z,9.57
2019-03-09T22:42:37.464Z,7.87
2019-03-09T22:45:07.439Z,7.67
2019-03-09T22:47:36.754Z,6.33
2019-03-09T22:50:07.163Z,7.00
2019-03-09T22:52:36.508Z,7.43
2019-03-09T22:55:06.115Z,8.43
2019-03-09T22:57:35.448Z,8.63
2019-03-09T23:00:05.210Z,7.37
2019-03-09T23:02:34.438Z,6.17
2019-03-09T23:05:03.968Z,7.57
2019-03-09T23:07:33.233Z,7.60
2019-03-09T23:10:02.382Z,5.30
2019-03-09T23:12:31.596Z,5.50
2019-03-09T23:15:00.758Z,4.43
2019-03-09T23:17:29.939Z,3.90
2019-03-09T23:19:59.107Z,3.87
2019-03-09T23:22:28.409Z,3.97
2019-03-09T23:24:57.671Z,5.07
2019-03-09T23:27:27.028Z,4.40
2019-03-09T23:29:56.251Z,4.70
2019-03-09T23:32:25.444Z,6.87
2019-03-09T23:34:54.722Z,7.30
2019-03-09T23:37:24.324Z,4.97
2019-03-09T23:39:53.480Z,4.73
2019-03-09T23:42:22.820Z,7.20
2019-03-09T23:44:52.052Z,5.67
2019-03-09T23:47:21.323Z,3.43
2019-03-09T23:49:50.491Z,3.80
2019-03-09T23:52:19.676Z,4.53
2019-03-09T23:54:48.835Z,4.93
2019-03-09T23:57:18.138Z,3.53
2019-03-09T23:59:47.381Z,3.03
